createdAt,value
2019-03-31T00:01:52.947Z,14.23
2019-03-31T00:06:55.604Z,14.17
2019-03-31T00:11:58.431Z,14.11
2019-03-31T00:17:00.987Z,14.04
2019-03-31T00:22:03.833Z,13.95
2019-03-31T00:27:06.516Z,13.89
2019-03-31T00:32:09.317Z,13.81
2019-03-31T00:37:11.969Z,13.77
2019-03-31T00:42:14.630Z,13.69
2019-03-31T00:47:17.337Z,13.67
2019-03-31T00:52:19.973Z,13.63
2019-03-31T00:57:24.060Z,13.59
2019-03-31T01:02:30.309Z,13.63
2019-03-31T01:07:33.221Z,13.66
2019-03-31T01:12:36.323Z,13.59
2019-03-31T01:17:39.020Z,13.55
2019-03-31T01:22:41.699Z,13.48
2019-03-31T01:27:45.673Z,13.40
2019-03-31T01:32:48.799Z,13.44
2019-03-31T01:37:52.812Z,13.50
2019-03-31T01:42:55.708Z,13.50
2019-03-31T01:47:58.316Z,13.44
2019-03-31T01:53:00.934Z,13.39
2019-03-31T01:58:03.743Z,13.32
2019-03-31T02:03:06.381Z,13.23
2019-03-31T02:08:09.247Z,13.13
2019-03-31T02:13:11.953Z,13.04
2019-03-31T02:18:15.726Z,13.06
2019-03-31T02:23:18.372Z,12.98
2019-03-31T02:28:21.213Z,12.92
2019-03-31T02:33:23.802Z,12.87
2019-03-31T02:38:27.616Z,12.81
2019-03-31T02:43:33.843Z,12.73
2019-03-31T02:48:36.571Z,12.68
2019-03-31T02:53:41.352Z,12.63
2019-03-31T02:58:44.767Z,12.50
2019-03-31T03:03:48.449Z,12.46
2019-03-31T03:08:52.989Z,12.39
2019-03-31T03:13:57.256Z,12.32
2019-03-31T03:19:00.024Z,12.29
2019-03-31T03:24:02.669Z,12.23
2019-03-31T03:29:05.198Z,12.17
2019-03-31T03:34:07.804Z,12.18
2019-03-31T03:39:10.441Z,12.13
2019-03-31T03:44:13.076Z,12.10
2019-03-31T03:49:16.022Z,12.06
2019-03-31T03:54:18.869Z,12.04
2019-03-31T03:59:21.397Z,11.98
2019-03-31T04:04:24.046Z,11.94
2019-03-31T04:09:26.686Z,11.93
2019-03-31T04:14:29.253Z,11.89
2019-03-31T04:19:35.571Z,11.85
2019-03-31T04:24:38.273Z,11.78
2019-03-31T04:29:40.890Z,11.73
2019-03-31T04:34:43.673Z,11.71
2019-03-31T04:39:46.356Z,11.67
2019-03-31T04:44:48.950Z,11.63
2019-03-31T04:49:51.566Z,11.60
2019-03-31T04:54:54.196Z,11.57
2019-03-31T04:59:56.828Z,11.54
2019-03-31T05:04:59.530Z,11.54
2019-03-31T05:10:03.342Z,11.52
2019-03-31T05:15:07.486Z,11.51
2019-03-31T05:20:10.248Z,11.51
2019-03-31T05:25:12.944Z,11.56
2019-03-31T05:30:15.783Z,11.60
2019-03-31T05:35:18.430Z,11.67
2019-03-31T05:40:21.062Z,11.78
2019-03-31T05:45:23.668Z,11.91
2019-03-31T05:50:26.263Z,12.05
2019-03-31T05:55:28.867Z,12.23
2019-03-31T06:00:52.945Z,12.30
2019-03-31T06:05:55.555Z,12.34
2019-03-31T06:10:58.088Z,12.48
2019-03-31T06:16:00.679Z,12.56
2019-03-31T06:21:03.364Z,12.68
2019-03-31T06:26:06.033Z,12.78
2019-03-31T06:31:08.710Z,12.88
2019-03-31T06:36:11.352Z,12.93
2019-03-31T06:41:13.994Z,13.00
2019-03-31T06:46:16.615Z,13.14
2019-03-31T06:51:19.224Z,13.20
2019-03-31T06:56:21.824Z,13.26
2019-03-31T07:01:24.478Z,13.34
2019-03-31T07:06:29.061Z,13.27
2019-03-31T07:11:31.699Z,13.25
2019-03-31T07:16:34.352Z,13.22
2019-03-31T07:21:36.944Z,13.13
2019-03-31T07:26:39.569Z,13.17
2019-03-31T07:31:42.205Z,13.17
2019-03-31T07:36:44.964Z,13.06
2019-03-31T07:41:49.057Z,12.96
2019-03-31T07:46:51.805Z,12.93
2019-03-31T07:51:54.408Z,12.91
2019-03-31T07:56:57.087Z,13.00
2019-03-31T08:01:59.796Z,13.07
2019-03-31T08:07:02.474Z,13.01
2019-03-31T08:12:05.116Z,12.94
2019-03-31T08:17:07.749Z,12.94
2019-03-31T08:22:10.305Z,12.90
2019-03-31T08:27:14.855Z,12.89
2019-03-31T08:32:17.480Z,12.99
2019-03-31T08:37:20.095Z,12.99
2019-03-31T08:42:22.761Z,12.96
2019-03-31T08:47:25.404Z,12.97
2019-03-31T08:52:29.826Z,13.15
2019-03-31T08:57:32.473Z,13.14
2019-03-31T09:02:36.652Z,13.26
2019-03-31T09:07:41.823Z,13.43
2019-03-31T09:12:43.823Z,13.41
2019-03-31T09:17:46.483Z,13.31
2019-03-31T09:22:49.131Z,13.23
2019-03-31T09:27:51.808Z,13.18
2019-03-31T09:32:54.511Z,13.32
2019-03-31T09:37:57.296Z,13.36
2019-03-31T09:43:00.000Z,13.37
2019-03-31T09:48:02.608Z,13.62
2019-03-31T09:53:05.300Z,13.89
2019-03-31T09:58:07.800Z,14.09
2019-03-31T10:03:10.452Z,14.23
2019-03-31T10:08:13.110Z,14.38
2019-03-31T10:13:15.933Z,14.38
2019-03-31T10:18:18.632Z,14.38
2019-03-31T10:23:21.351Z,14.27
2019-03-31T10:28:26.441Z,14.11
2019-03-31T10:33:29.150Z,13.98
2019-03-31T10:38:31.839Z,14.04
2019-03-31T10:43:34.522Z,14.04
2019-03-31T10:48:37.160Z,14.14
2019-03-31T10:53:41.582Z,14.04
2019-03-31T10:58:44.255Z,14.02
2019-03-31T11:03:48.820Z,13.88
2019-03-31T11:08:54.054Z,13.84
2019-03-31T11:13:56.722Z,13.67
2019-03-31T11:18:59.450Z,13.53
2019-03-31T11:24:02.129Z,13.58
2019-03-31T11:29:04.843Z,13.64
2019-03-31T11:34:07.492Z,13.78
2019-03-31T11:39:16.087Z,13.93
2019-03-31T11:44:20.371Z,14.07
2019-03-31T11:49:23.606Z,14.22
2019-03-31T11:54:29.062Z,14.26
2019-03-31T11:59:36.620Z,14.21
2019-03-31T12:04:47.946Z,14.32
2019-03-31T12:09:50.764Z,14.26
2019-03-31T12:15:00.614Z,14.44
2019-03-31T12:20:01.517Z,14.61
2019-03-31T12:25:04.855Z,14.75
2019-03-31T12:30:09.192Z,14.98
2019-03-31T12:35:12.634Z,15.07
2019-03-31T12:40:29.463Z,15.06
2019-03-31T12:45:32.682Z,15.01
2019-03-31T12:50:37.600Z,15.15
2019-03-31T12:55:41.732Z,15.24
2019-03-31T13:00:46.685Z,15.39
2019-03-31T13:05:50.505Z,15.56
2019-03-31T13:10:53.253Z,15.76
2019-03-31T13:15:55.924Z,15.90
2019-03-31T13:20:58.571Z,15.69
2019-03-31T13:26:01.188Z,15.71
2019-03-31T13:31:04.799Z,15.64
2019-03-31T13:36:07.457Z,15.58
2019-03-31T13:41:10.160Z,15.52
2019-03-31T13:46:12.887Z,15.50
2019-03-31T13:51:15.537Z,15.48
2019-03-31T13:56:18.869Z,15.45
2019-03-31T14:01:22.239Z,15.36
2019-03-31T14:06:24.902Z,15.26
2019-03-31T14:11:27.522Z,15.42
2019-03-31T14:16:30.171Z,15.29
2019-03-31T14:21:32.785Z,15.19
2019-03-31T14:26:35.420Z,15.26
2019-03-31T14:31:38.078Z,15.20
2019-03-31T14:36:40.687Z,15.14
2019-03-31T14:41:43.273Z,15.12
2019-03-31T14:46:45.818Z,15.02
2019-03-31T14:51:49.646Z,15.16
2019-03-31T14:56:54.786Z,15.09
2019-03-31T15:01:57.409Z,15.13
2019-03-31T15:07:00.124Z,15.09
2019-03-31T15:12:02.700Z,14.96
2019-03-31T15:17:05.391Z,14.95
2019-03-31T15:22:08.117Z,14.99
2019-03-31T15:27:10.807Z,15.03
2019-03-31T15:32:13.398Z,14.87
2019-03-31T15:37:17.987Z,14.93
2019-03-31T15:42:20.603Z,14.83
2019-03-31T15:47:23.254Z,14.75
2019-03-31T15:52:25.878Z,14.69
2019-03-31T15:57:28.508Z,14.61
2019-03-31T16:02:32.180Z,14.59
2019-03-31T16:07:34.892Z,14.62
2019-03-31T16:12:36.963Z,14.64
2019-03-31T16:17:41.002Z,14.56
2019-03-31T16:22:43.120Z,14.45
2019-03-31T16:27:45.297Z,14.51
2019-03-31T16:32:47.367Z,14.53
2019-03-31T16:37:49.525Z,14.53
2019-03-31T16:42:51.603Z,14.50
2019-03-31T16:47:53.651Z,14.50
2019-03-31T16:52:55.796Z,14.46
2019-03-31T16:57:57.857Z,14.44
2019-03-31T17:02:59.974Z,14.41
2019-03-31T17:08:02.019Z,14.30
2019-03-31T17:13:04.244Z,14.15
2019-03-31T17:18:06.358Z,14.16
2019-03-31T17:23:08.413Z,14.17
2019-03-31T17:28:10.534Z,14.05
2019-03-31T17:33:12.622Z,13.94
2019-03-31T17:38:14.698Z,13.82
2019-03-31T17:43:16.785Z,13.67
2019-03-31T17:48:19.913Z,13.49
2019-03-31T17:53:22.232Z,13.34
2019-03-31T17:58:24.325Z,13.25
2019-03-31T18:03:26.273Z,13.22
2019-03-31T18:08:30.797Z,13.18
2019-03-31T18:13:32.879Z,13.10
2019-03-31T18:18:34.967Z,13.05
2019-03-31T18:23:37.061Z,12.96
2019-03-31T18:28:39.109Z,12.87
2019-03-31T18:33:41.206Z,12.78
2019-03-31T18:38:43.274Z,12.71
2019-03-31T18:43:51.627Z,12.62
2019-03-31T18:48:51.759Z,12.53
2019-03-31T18:54:12.702Z,12.48
2019-03-31T18:59:33.639Z,12.41
2019-03-31T19:04:54.132Z,12.38
2019-03-31T19:10:30.945Z,12.28
2019-03-31T19:15:52.619Z,12.24
2019-03-31T19:21:11.375Z,12.07
2019-03-31T19:26:27.991Z,12.11
2019-03-31T19:31:44.241Z,12.06
2019-03-31T19:37:01.800Z,11.97
2019-03-31T19:42:23.612Z,11.93
2019-03-31T19:47:45.299Z,11.91
2019-03-31T19:52:54.652Z,11.88
2019-03-31T19:58:22.179Z,11.79
2019-03-31T20:03:37.672Z,11.71
2019-03-31T20:08:48.806Z,11.66
2019-03-31T20:14:09.130Z,11.68
2019-03-31T20:19:19.426Z,11.66
2019-03-31T20:24:33.408Z,11.61
2019-03-31T20:29:48.216Z,11.56
2019-03-31T20:35:12.709Z,11.46
2019-03-31T20:40:28.955Z,11.36
2019-03-31T20:45:31.111Z,11.27
2019-03-31T20:50:33.158Z,11.24
2019-03-31T20:55:35.340Z,11.17
2019-03-31T21:00:37.393Z,11.12
2019-03-31T21:05:39.504Z,10.97
2019-03-31T21:10:41.729Z,10.95
2019-03-31T21:15:43.819Z,10.87
2019-03-31T21:20:45.925Z,10.79
2019-03-31T21:25:48.030Z,10.76
2019-03-31T21:30:50.091Z,10.70
2019-03-31T21:35:52.168Z,10.62
2019-03-31T21:40:54.237Z,10.53
2019-03-31T21:45:57.528Z,10.39
2019-03-31T21:50:59.597Z,10.31
2019-03-31T21:56:01.642Z,10.24
2019-03-31T22:01:04.436Z,10.10
2019-03-31T22:06:06.512Z,10.02
2019-03-31T22:11:08.567Z,9.93
2019-03-31T22:16:10.654Z,9.84
2019-03-31T22:21:12.777Z,9.82
2019-03-31T22:26:14.985Z,9.77
2019-03-31T22:31:17.228Z,9.71
2019-03-31T22:36:22.003Z,9.63
2019-03-31T22:41:24.113Z,9.50
2019-03-31T22:46:26.175Z,9.47
2019-03-31T22:51:28.238Z,9.43
2019-03-31T22:56:30.308Z,9.40
2019-03-31T23:01:34.781Z,9.33
2019-03-31T23:06:36.866Z,9.26
2019-03-31T23:11:38.952Z,9.21
2019-03-31T23:16:41.027Z,9.16
2019-03-31T23:21:45.497Z,9.13
2019-03-31T23:26:47.589Z,9.07
2019-03-31T23:31:50.037Z,9.04
2019-03-31T23:36:52.101Z,9.00
2019-03-31T23:41:54.160Z,8.89
2019-03-31T23:46:56.268Z,8.79
2019-03-31T23:51:58.370Z,8.69
2019-03-31T23:57:00.392Z,8.61
